sensor_id;sensor_type;location;lat;lon;timestamp;temperature;humidity
23124;DHT22;11731;48.592;8.858;2024-01-30T00:01:24;5.50;99.90
23124;DHT22;11731;48.592;8.858;2024-01-30T00:03:57;5.70;99.90
23124;DHT22;11731;48.592;8.858;2024-01-30T00:06:27;5.50;99.90
23124;DHT22;11731;48.592;8.858;2024-01-30T00:12:07;5.40;99.90
23124;DHT22;11731;48.592;8.858;2024-01-30T00:14:41;5.50;99.90
23124;DHT22;11731;48.592;8.858;2024-01-30T00:17:08;5.50;99.90
23124;DHT22;11731;48.592;8.858;2024-01-30T00:19:41;5.40;99.90
23124;DHT22;11731;48.592;8.858;2024-01-30T00:22:22;5.40;99.90
23124;DHT22;11731;48.592;8.858;2024-01-30T00:24:49;5.40;99.90
23124;DHT22;11731;48.592;8.858;2024-01-30T00:28:14;5.40;99.90
23124;DHT22;11731;48.592;8.858;2024-01-30T00:31:29;5.50;99.90
23124;DHT22;11731;48.592;8.858;2024-01-30T00:33:56;5.50;99.90
23124;DHT22;11731;48.592;8.858;2024-01-30T00:40:09;5.50;99.90
23124;DHT22;11731;48.592;8.858;2024-01-30T00:42:48;5.40;99.90
23124;DHT22;11731;48.592;8.858;2024-01-30T00:45:18;5.40;99.90
23124;DHT22;11731;48.592;8.858;2024-01-30T00:47:45;5.40;99.90
23124;DHT22;11731;48.592;8.858;2024-01-30T00:50:24;5.40;99.90
23124;DHT22;11731;48.592;8.858;2024-01-30T00:53:15;5.50;99.90
23124;DHT22;11731;48.592;8.858;2024-01-30T00:59:08;5.70;99.90
23124;DHT22;11731;48.592;8.858;2024-01-30T01:01:35;5.30;99.90
23124;DHT22;11731;48.592;8.858;2024-01-30T01:04:02;5.40;99.90
23124;DHT22;11731;48.592;8.858;2024-01-30T01:06:34;5.50;99.90
23124;DHT22;11731;48.592;8.858;2024-01-30T01:09:16;5.60;99.90
23124;DHT22;11731;48.592;8.858;2024-01-30T01:11:43;5.60;99.90
23124;DHT22;11731;48.592;8.858;2024-01-30T01:14:12;5.70;99.90
23124;DHT22;11731;48.592;8.858;2024-01-30T01:16:38;5.70;99.90
23124;DHT22;11731;48.592;8.858;2024-01-30T01:19:07;5.60;99.90
23124;DHT22;11731;48.592;8.858;2024-01-30T01:24:31;5.40;99.90
23124;DHT22;11731;48.592;8.858;2024-01-30T01:26:58;5.40;99.90
23124;DHT22;11731;48.592;8.858;2024-01-30T01:29:57;5.40;99.90
23124;DHT22;11731;48.592;8.858;2024-01-30T01:32:17;5.40;99.90
23124;DHT22;11731;48.592;8.858;2024-01-30T01:34:46;5.40;99.90
23124;DHT22;11731;48.592;8.858;2024-01-30T01:37:28;5.30;99.90
23124;DHT22;11731;48.592;8.858;2024-01-30T01:39:56;5.30;99.90
23124;DHT22;11731;48.592;8.858;2024-01-30T01:42:26;5.20;99.90
23124;DHT22;11731;48.592;8.858;2024-01-30T01:44:54;5.20;99.90
23124;DHT22;11731;48.592;8.858;2024-01-30T01:47:21;5.40;99.90
23124;DHT22;11731;48.592;8.858;2024-01-30T01:49:48;5.40;99.90
23124;DHT22;11731;48.592;8.858;2024-01-30T01:52:15;5.30;99.90
23124;DHT22;11731;48.592;8.858;2024-01-30T01:55:04;5.30;99.90
23124;DHT22;11731;48.592;8.858;2024-01-30T01:57:31;5.30;99.90
23124;DHT22;11731;48.592;8.858;2024-01-30T02:00:00;5.20;99.90
23124;DHT22;11731;48.592;8.858;2024-01-30T02:02:30;5.20;99.90
23124;DHT22;11731;48.592;8.858;2024-01-30T02:05:13;5.10;99.90
23124;DHT22;11731;48.592;8.858;2024-01-30T02:07:44;5.00;99.90
23124;DHT22;11731;48.592;8.858;2024-01-30T02:10:17;5.00;99.90
23124;DHT22;11731;48.592;8.858;2024-01-30T02:12:44;5.00;99.90
23124;DHT22;11731;48.592;8.858;2024-01-30T02:15:14;5.00;99.90
23124;DHT22;11731;48.592;8.858;2024-01-30T02:17:41;5.00;99.90
23124;DHT22;11731;48.592;8.858;2024-01-30T02:20:09;5.00;99.90
23124;DHT22;11731;48.592;8.858;2024-01-30T02:22:38;5.10;99.90
23124;DHT22;11731;48.592;8.858;2024-01-30T02:25:07;5.10;99.90
23124;DHT22;11731;48.592;8.858;2024-01-30T02:27:34;5.00;99.90
23124;DHT22;11731;48.592;8.858;2024-01-30T02:30:00;5.00;99.90
23124;DHT22;11731;48.592;8.858;2024-01-30T02:32:27;4.90;99.90
23124;DHT22;11731;48.592;8.858;2024-01-30T02:34:54;5.00;99.90
23124;DHT22;11731;48.592;8.858;2024-01-30T02:37:21;4.90;99.90
23124;DHT22;11731;48.592;8.858;2024-01-30T02:39:49;4.90;99.90
23124;DHT22;11731;48.592;8.858;2024-01-30T02:42:16;4.90;99.90
23124;DHT22;11731;48.592;8.858;2024-01-30T02:44:43;4.90;99.90
23124;DHT22;11731;48.592;8.858;2024-01-30T02:47:10;5.00;99.90
23124;DHT22;11731;48.592;8.858;2024-01-30T02:49:37;5.00;99.90
23124;DHT22;11731;48.592;8.858;2024-01-30T02:52:04;4.90;99.90
23124;DHT22;11731;48.592;8.858;2024-01-30T02:54:31;4.80;99.90
23124;DHT22;11731;48.592;8.858;2024-01-30T02:56:59;4.90;99.90
23124;DHT22;11731;48.592;8.858;2024-01-30T02:59:26;5.00;99.90
23124;DHT22;11731;48.592;8.858;2024-01-30T03:01:53;4.90;99.90
23124;DHT22;11731;48.592;8.858;2024-01-30T03:04:20;4.80;99.90
23124;DHT22;11731;48.592;8.858;2024-01-30T03:06:47;4.90;99.90
23124;DHT22;11731;48.592;8.858;2024-01-30T03:09:15;4.90;99.90
23124;DHT22;11731;48.592;8.858;2024-01-30T03:11:42;5.00;99.90
23124;DHT22;11731;48.592;8.858;2024-01-30T03:14:11;5.10;99.90
23124;DHT22;11731;48.592;8.858;2024-01-30T03:16:38;5.00;99.90
23124;DHT22;11731;48.592;8.858;2024-01-30T03:19:06;4.80;99.90
23124;DHT22;11731;48.592;8.858;2024-01-30T03:21:34;4.80;99.90
23124;DHT22;11731;48.592;8.858;2024-01-30T03:24:01;4.70;99.90
23124;DHT22;11731;48.592;8.858;2024-01-30T03:26:28;4.20;99.90
23124;DHT22;11731;48.592;8.858;2024-01-30T03:28:55;4.10;99.90
23124;DHT22;11731;48.592;8.858;2024-01-30T03:31:23;4.30;99.90
23124;DHT22;11731;48.592;8.858;2024-01-30T03:33:50;4.30;99.90
23124;DHT22;11731;48.592;8.858;2024-01-30T03:36:17;4.20;99.90
23124;DHT22;11731;48.592;8.858;2024-01-30T03:38:44;4.40;99.90
23124;DHT22;11731;48.592;8.858;2024-01-30T03:41:11;4.50;99.90
23124;DHT22;11731;48.592;8.858;2024-01-30T03:43:37;4.30;99.90
23124;DHT22;11731;48.592;8.858;2024-01-30T03:46:04;4.40;99.90
23124;DHT22;11731;48.592;8.858;2024-01-30T03:48:32;4.40;99.90
23124;DHT22;11731;48.592;8.858;2024-01-30T03:50:59;4.40;99.90
23124;DHT22;11731;48.592;8.858;2024-01-30T03:53:26;4.60;99.90
23124;DHT22;11731;48.592;8.858;2024-01-30T03:55:53;4.80;99.90
23124;DHT22;11731;48.592;8.858;2024-01-30T03:58:20;4.80;99.90
23124;DHT22;11731;48.592;8.858;2024-01-30T04:00:47;4.90;99.90
23124;DHT22;11731;48.592;8.858;2024-01-30T04:03:14;4.80;99.90
23124;DHT22;11731;48.592;8.858;2024-01-30T04:05:42;4.60;99.90
23124;DHT22;11731;48.592;8.858;2024-01-30T04:08:09;4.70;99.90
23124;DHT22;11731;48.592;8.858;2024-01-30T04:10:36;4.80;99.90
23124;DHT22;11731;48.592;8.858;2024-01-30T04:13:03;4.80;99.90
23124;DHT22;11731;48.592;8.858;2024-01-30T04:15:30;4.70;99.90
23124;DHT22;11731;48.592;8.858;2024-01-30T04:17:58;4.70;99.90
23124;DHT22;11731;48.592;8.858;2024-01-30T04:20:25;4.50;99.90
23124;DHT22;11731;48.592;8.858;2024-01-30T04:22:53;4.50;99.90
23124;DHT22;11731;48.592;8.858;2024-01-30T04:25:20;4.50;99.90
23124;DHT22;11731;48.592;8.858;2024-01-30T04:27:47;4.60;99.90
23124;DHT22;11731;48.592;8.858;2024-01-30T04:30:14;4.60;99.90
23124;DHT22;11731;48.592;8.858;2024-01-30T04:32:42;4.70;99.90
23124;DHT22;11731;48.592;8.858;2024-01-30T04:35:09;4.70;99.90
23124;DHT22;11731;48.592;8.858;2024-01-30T04:37:36;4.60;99.90
23124;DHT22;11731;48.592;8.858;2024-01-30T04:40:06;4.70;99.90
23124;DHT22;11731;48.592;8.858;2024-01-30T04:42:33;4.60;99.90
23124;DHT22;11731;48.592;8.858;2024-01-30T04:45:00;4.70;99.90
23124;DHT22;11731;48.592;8.858;2024-01-30T04:47:27;4.80;99.90
23124;DHT22;11731;48.592;8.858;2024-01-30T04:49:55;4.70;99.90
23124;DHT22;11731;48.592;8.858;2024-01-30T04:52:22;4.60;99.90
23124;DHT22;11731;48.592;8.858;2024-01-30T04:54:48;4.40;99.90
23124;DHT22;11731;48.592;8.858;2024-01-30T04:57:17;4.50;99.90
23124;DHT22;11731;48.592;8.858;2024-01-30T04:59:43;4.40;99.90
23124;DHT22;11731;48.592;8.858;2024-01-30T05:02:10;4.30;99.90
23124;DHT22;11731;48.592;8.858;2024-01-30T05:04:37;4.10;99.90
23124;DHT22;11731;48.592;8.858;2024-01-30T05:07:04;4.20;99.90
23124;DHT22;11731;48.592;8.858;2024-01-30T05:09:31;4.20;99.90
23124;DHT22;11731;48.592;8.858;2024-01-30T05:11:58;4.30;99.90
23124;DHT22;11731;48.592;8.858;2024-01-30T05:14:26;4.20;99.90
23124;DHT22;11731;48.592;8.858;2024-01-30T05:16:53;4.30;99.90
23124;DHT22;11731;48.592;8.858;2024-01-30T05:19:20;4.40;99.90
23124;DHT22;11731;48.592;8.858;2024-01-30T05:21:48;4.30;99.90
23124;DHT22;11731;48.592;8.858;2024-01-30T05:24:15;4.30;99.90
23124;DHT22;11731;48.592;8.858;2024-01-30T05:26:42;4.20;99.90
23124;DHT22;11731;48.592;8.858;2024-01-30T05:29:09;4.20;99.90
23124;DHT22;11731;48.592;8.858;2024-01-30T05:31:38;4.20;99.90
23124;DHT22;11731;48.592;8.858;2024-01-30T05:34:04;4.30;99.90
23124;DHT22;11731;48.592;8.858;2024-01-30T05:36:32;4.30;99.90
23124;DHT22;11731;48.592;8.858;2024-01-30T05:38:59;4.40;99.90
23124;DHT22;11731;48.592;8.858;2024-01-30T05:41:25;4.50;99.90
23124;DHT22;11731;48.592;8.858;2024-01-30T05:43:53;4.50;99.90
23124;DHT22;11731;48.592;8.858;2024-01-30T05:46:20;4.40;99.90
23124;DHT22;11731;48.592;8.858;2024-01-30T05:48:48;4.50;99.90
23124;DHT22;11731;48.592;8.858;2024-01-30T05:51:15;4.60;99.90
23124;DHT22;11731;48.592;8.858;2024-01-30T05:53:42;4.70;99.90
23124;DHT22;11731;48.592;8.858;2024-01-30T05:56:08;4.70;99.90
23124;DHT22;11731;48.592;8.858;2024-01-30T05:58:35;4.60;99.90
23124;DHT22;11731;48.592;8.858;2024-01-30T06:01:06;4.50;99.90
23124;DHT22;11731;48.592;8.858;2024-01-30T06:03:34;4.60;99.90
23124;DHT22;11731;48.592;8.858;2024-01-30T06:06:02;4.60;99.90
23124;DHT22;11731;48.592;8.858;2024-01-30T06:08:29;4.50;99.90
23124;DHT22;11731;48.592;8.858;2024-01-30T06:10:56;4.50;99.90
23124;DHT22;11731;48.592;8.858;2024-01-30T06:13:22;4.40;99.90
23124;DHT22;11731;48.592;8.858;2024-01-30T06:15:49;4.40;99.90
23124;DHT22;11731;48.592;8.858;2024-01-30T06:18:16;4.50;99.90
23124;DHT22;11731;48.592;8.858;2024-01-30T06:20:43;4.40;99.90
23124;DHT22;11731;48.592;8.858;2024-01-30T06:23:11;4.40;99.90
23124;DHT22;11731;48.592;8.858;2024-01-30T06:25:40;4.30;99.90
23124;DHT22;11731;48.592;8.858;2024-01-30T06:28:07;4.20;99.90
23124;DHT22;11731;48.592;8.858;2024-01-30T06:30:33;4.20;99.90
23124;DHT22;11731;48.592;8.858;2024-01-30T06:33:00;4.30;99.90
23124;DHT22;11731;48.592;8.858;2024-01-30T06:35:27;4.30;99.90
23124;DHT22;11731;48.592;8.858;2024-01-30T06:37:54;4.40;99.90
23124;DHT22;11731;48.592;8.858;2024-01-30T06:40:23;4.50;99.90
23124;DHT22;11731;48.592;8.858;2024-01-30T06:42:50;4.60;99.90
23124;DHT22;11731;48.592;8.858;2024-01-30T06:45:16;4.50;99.90
23124;DHT22;11731;48.592;8.858;2024-01-30T06:47:43;4.50;99.90
23124;DHT22;11731;48.592;8.858;2024-01-30T06:50:10;4.40;99.90
23124;DHT22;11731;48.592;8.858;2024-01-30T06:52:37;4.50;99.90
23124;DHT22;11731;48.592;8.858;2024-01-30T06:55:04;4.50;99.90
23124;DHT22;11731;48.592;8.858;2024-01-30T06:57:33;4.40;99.90
23124;DHT22;11731;48.592;8.858;2024-01-30T07:00:00;4.40;99.90
23124;DHT22;11731;48.592;8.858;2024-01-30T07:02:27;4.40;99.90
23124;DHT22;11731;48.592;8.858;2024-01-30T07:04:54;4.60;99.90
23124;DHT22;11731;48.592;8.858;2024-01-30T07:07:21;4.60;99.90
23124;DHT22;11731;48.592;8.858;2024-01-30T07:09:47;4.60;99.90
23124;DHT22;11731;48.592;8.858;2024-01-30T07:12:18;4.50;99.90
23124;DHT22;11731;48.592;8.858;2024-01-30T07:14:46;4.60;99.90
23124;DHT22;11731;48.592;8.858;2024-01-30T07:17:13;4.50;99.90
23124;DHT22;11731;48.592;8.858;2024-01-30T07:19:40;4.60;99.90
23124;DHT22;11731;48.592;8.858;2024-01-30T07:22:07;4.60;99.90
23124;DHT22;11731;48.592;8.858;2024-01-30T07:24:34;4.60;99.90
23124;DHT22;11731;48.592;8.858;2024-01-30T07:27:02;4.70;99.90
23124;DHT22;11731;48.592;8.858;2024-01-30T07:29:29;4.70;99.90
23124;DHT22;11731;48.592;8.858;2024-01-30T07:31:57;4.60;99.90
23124;DHT22;11731;48.592;8.858;2024-01-30T07:34:24;4.60;99.90
23124;DHT22;11731;48.592;8.858;2024-01-30T07:36:50;4.30;99.90
23124;DHT22;11731;48.592;8.858;2024-01-30T07:39:17;4.20;99.90
23124;DHT22;11731;48.592;8.858;2024-01-30T07:41:44;4.00;99.90
23124;DHT22;11731;48.592;8.858;2024-01-30T07:44:11;4.00;99.90
23124;DHT22;11731;48.592;8.858;2024-01-30T07:46:38;4.10;99.90
23124;DHT22;11731;48.592;8.858;2024-01-30T07:49:06;4.10;99.90
23124;DHT22;11731;48.592;8.858;2024-01-30T07:51:33;4.10;99.90
23124;DHT22;11731;48.592;8.858;2024-01-30T07:54:00;4.20;99.90
23124;DHT22;11731;48.592;8.858;2024-01-30T07:56:27;4.50;99.90
23124;DHT22;11731;48.592;8.858;2024-01-30T07:58:53;4.80;99.90
23124;DHT22;11731;48.592;8.858;2024-01-30T08:01:20;5.10;99.90
23124;DHT22;11731;48.592;8.858;2024-01-30T08:03:47;5.20;99.90
23124;DHT22;11731;48.592;8.858;2024-01-30T08:06:15;5.30;99.90
23124;DHT22;11731;48.592;8.858;2024-01-30T08:08:42;5.50;99.90
23124;DHT22;11731;48.592;8.858;2024-01-30T08:11:09;5.70;99.90
23124;DHT22;11731;48.592;8.858;2024-01-30T08:13:36;5.70;99.90
23124;DHT22;11731;48.592;8.858;2024-01-30T08:16:03;5.50;99.90
23124;DHT22;11731;48.592;8.858;2024-01-30T08:18:32;5.40;99.90
23124;DHT22;11731;48.592;8.858;2024-01-30T08:20:59;5.40;99.90
23124;DHT22;11731;48.592;8.858;2024-01-30T08:23:27;5.20;99.90
23124;DHT22;11731;48.592;8.858;2024-01-30T08:32:19;5.80;99.90
23124;DHT22;11731;48.592;8.858;2024-01-30T08:44:31;6.30;99.90
23124;DHT22;11731;48.592;8.858;2024-01-30T09:26:51;7.10;99.90
23124;DHT22;11731;48.592;8.858;2024-01-30T09:29:19;7.50;99.90
23124;DHT22;11731;48.592;8.858;2024-01-30T09:31:53;7.90;99.90
23124;DHT22;11731;48.592;8.858;2024-01-30T09:34:25;8.00;99.90
23124;DHT22;11731;48.592;8.858;2024-01-30T09:39:24;8.00;99.90
23124;DHT22;11731;48.592;8.858;2024-01-30T09:40:45;7.90;99.90
23124;DHT22;11731;48.592;8.858;2024-01-30T10:17:02;9.40;99.90
23124;DHT22;11731;48.592;8.858;2024-01-30T10:19:41;9.70;99.90
23124;DHT22;11731;48.592;8.858;2024-01-30T10:22:25;9.70;99.90
23124;DHT22;11731;48.592;8.858;2024-01-30T10:24:55;9.90;99.90
23124;DHT22;11731;48.592;8.858;2024-01-30T10:27:34;9.90;99.90
23124;DHT22;11731;48.592;8.858;2024-01-30T10:30:02;10.30;99.90
23124;DHT22;11731;48.592;8.858;2024-01-30T10:32:34;10.70;99.90
23124;DHT22;11731;48.592;8.858;2024-01-30T10:35:04;10.70;99.90
23124;DHT22;11731;48.592;8.858;2024-01-30T10:37:34;10.60;99.90
23124;DHT22;11731;48.592;8.858;2024-01-30T11:01:58;10.80;99.90
23124;DHT22;11731;48.592;8.858;2024-01-30T11:05:22;10.80;99.90
23124;DHT22;11731;48.592;8.858;2024-01-30T11:07:54;11.20;99.90
23124;DHT22;11731;48.592;8.858;2024-01-30T11:10:32;11.70;99.90
23124;DHT22;11731;48.592;8.858;2024-01-30T11:12:59;11.90;99.90
23124;DHT22;11731;48.592;8.858;2024-01-30T11:15:46;11.60;99.90
23124;DHT22;11731;48.592;8.858;2024-01-30T11:18:24;11.80;99.90
23124;DHT22;11731;48.592;8.858;2024-01-30T11:20:52;11.70;99.90
23124;DHT22;11731;48.592;8.858;2024-01-30T11:26:30;11.90;99.90
23124;DHT22;11731;48.592;8.858;2024-01-30T11:29:18;12.40;99.90
23124;DHT22;11731;48.592;8.858;2024-01-30T11:31:59;12.60;99.90
23124;DHT22;11731;48.592;8.858;2024-01-30T11:34:51;12.40;99.90
23124;DHT22;11731;48.592;8.858;2024-01-30T11:38:15;12.70;99.90
23124;DHT22;11731;48.592;8.858;2024-01-30T11:47:28;12.40;99.90
23124;DHT22;11731;48.592;8.858;2024-01-30T12:00:38;12.90;99.90
23124;DHT22;11731;48.592;8.858;2024-01-30T12:03:15;13.20;99.90
23124;DHT22;11731;48.592;8.858;2024-01-30T12:05:47;13.30;99.90
23124;DHT22;11731;48.592;8.858;2024-01-30T12:08:41;13.00;99.90
23124;DHT22;11731;48.592;8.858;2024-01-30T12:11:08;12.80;99.90
23124;DHT22;11731;48.592;8.858;2024-01-30T12:44:29;14.10;99.90
23124;DHT22;11731;48.592;8.858;2024-01-30T12:46:55;14.10;99.90
23124;DHT22;11731;48.592;8.858;2024-01-30T12:49:39;14.10;99.90
23124;DHT22;11731;48.592;8.858;2024-01-30T12:52:09;14.00;99.90
23124;DHT22;11731;48.592;8.858;2024-01-30T12:54:39;14.10;99.90
23124;DHT22;11731;48.592;8.858;2024-01-30T12:57:20;14.40;99.90
23124;DHT22;11731;48.592;8.858;2024-01-30T13:03:25;14.40;99.90
23124;DHT22;11731;48.592;8.858;2024-01-30T13:06:30;14.50;99.90
23124;DHT22;11731;48.592;8.858;2024-01-30T13:12:13;14.80;99.90
23124;DHT22;11731;48.592;8.858;2024-01-30T13:14:40;14.90;99.90
23124;DHT22;11731;48.592;8.858;2024-01-30T13:17:10;15.00;99.90
23124;DHT22;11731;48.592;8.858;2024-01-30T13:19:46;14.90;99.90
23124;DHT22;11731;48.592;8.858;2024-01-30T13:22:40;14.80;99.90
23124;DHT22;11731;48.592;8.858;2024-01-30T13:25:16;14.50;99.90
23124;DHT22;11731;48.592;8.858;2024-01-30T13:27:43;14.60;99.90
23124;DHT22;11731;48.592;8.858;2024-01-30T13:30:10;14.80;99.90
23124;DHT22;11731;48.592;8.858;2024-01-30T13:35:54;15.20;99.90
23124;DHT22;11731;48.592;8.858;2024-01-30T13:40:11;15.10;99.90
23124;DHT22;11731;48.592;8.858;2024-01-30T13:42:01;15.40;99.90
23124;DHT22;11731;48.592;8.858;2024-01-30T13:47:59;15.60;99.90
23124;DHT22;11731;48.592;8.858;2024-01-30T13:50:44;15.70;99.90
23124;DHT22;11731;48.592;8.858;2024-01-30T13:56:15;15.50;99.90
23124;DHT22;11731;48.592;8.858;2024-01-30T14:01:36;15.90;99.90
23124;DHT22;11731;48.592;8.858;2024-01-30T14:07:24;15.90;99.90
23124;DHT22;11731;48.592;8.858;2024-01-30T14:10:06;15.80;99.90
23124;DHT22;11731;48.592;8.858;2024-01-30T14:15:53;15.80;99.90
23124;DHT22;11731;48.592;8.858;2024-01-30T14:21:33;15.90;99.90
23124;DHT22;11731;48.592;8.858;2024-01-30T14:24:03;15.90;99.90
23124;DHT22;11731;48.592;8.858;2024-01-30T14:27:12;16.20;99.90
23124;DHT22;11731;48.592;8.858;2024-01-30T14:31:05;16.40;99.90
23124;DHT22;11731;48.592;8.858;2024-01-30T14:39:38;16.30;99.90
23124;DHT22;11731;48.592;8.858;2024-01-30T14:44:36;16.30;99.90
23124;DHT22;11731;48.592;8.858;2024-01-30T14:47:05;16.20;99.90
23124;DHT22;11731;48.592;8.858;2024-01-30T14:49:33;16.00;99.90
23124;DHT22;11731;48.592;8.858;2024-01-30T14:52:09;16.00;99.90
23124;DHT22;11731;48.592;8.858;2024-01-30T14:58:10;15.50;99.90
23124;DHT22;11731;48.592;8.858;2024-01-30T15:00:41;15.90;99.90
23124;DHT22;11731;48.592;8.858;2024-01-30T15:03:08;15.90;99.90
23124;DHT22;11731;48.592;8.858;2024-01-30T15:05:41;15.90;99.90
23124;DHT22;11731;48.592;8.858;2024-01-30T15:08:29;15.90;99.90
23124;DHT22;11731;48.592;8.858;2024-01-30T15:11:01;15.70;99.90
23124;DHT22;11731;48.592;8.858;2024-01-30T15:19:41;15.60;99.90
23124;DHT22;11731;48.592;8.858;2024-01-30T15:22:08;15.70;99.90
23124;DHT22;11731;48.592;8.858;2024-01-30T15:27:46;15.30;99.90
23124;DHT22;11731;48.592;8.858;2024-01-30T15:30:13;15.10;99.90
23124;DHT22;11731;48.592;8.858;2024-01-30T15:32:40;15.00;99.90
23124;DHT22;11731;48.592;8.858;2024-01-30T15:35:09;15.00;99.90
23124;DHT22;11731;48.592;8.858;2024-01-30T15:37:41;15.00;99.90
23124;DHT22;11731;48.592;8.858;2024-01-30T15:43:41;15.10;99.90
23124;DHT22;11731;48.592;8.858;2024-01-30T15:46:08;15.00;99.90
23124;DHT22;11731;48.592;8.858;2024-01-30T15:48:38;15.00;99.90
23124;DHT22;11731;48.592;8.858;2024-01-30T15:54:24;14.50;99.90
23124;DHT22;11731;48.592;8.858;2024-01-30T15:56:51;14.30;99.90
23124;DHT22;11731;48.592;8.858;2024-01-30T15:59:21;14.40;99.90
23124;DHT22;11731;48.592;8.858;2024-01-30T16:02:16;14.30;99.90
23124;DHT22;11731;48.592;8.858;2024-01-30T16:05:11;14.40;99.90
23124;DHT22;11731;48.592;8.858;2024-01-30T16:07:52;14.50;99.90
23124;DHT22;11731;48.592;8.858;2024-01-30T16:10:21;14.40;99.90
23124;DHT22;11731;48.592;8.858;2024-01-30T16:12:47;14.10;99.90
23124;DHT22;11731;48.592;8.858;2024-01-30T16:15:15;13.80;99.90
23124;DHT22;11731;48.592;8.858;2024-01-30T16:17:43;13.60;99.90
23124;DHT22;11731;48.592;8.858;2024-01-30T16:20:10;13.50;99.90
23124;DHT22;11731;48.592;8.858;2024-01-30T16:22:40;13.20;99.90
23124;DHT22;11731;48.592;8.858;2024-01-30T16:25:07;13.20;99.90
23124;DHT22;11731;48.592;8.858;2024-01-30T16:27:35;13.20;99.90
23124;DHT22;11731;48.592;8.858;2024-01-30T16:30:02;13.00;99.90
23124;DHT22;11731;48.592;8.858;2024-01-30T16:32:29;13.10;99.90
23124;DHT22;11731;48.592;8.858;2024-01-30T16:34:57;13.20;99.90
23124;DHT22;11731;48.592;8.858;2024-01-30T16:37:24;13.20;99.90
23124;DHT22;11731;48.592;8.858;2024-01-30T16:39:52;13.40;99.90
23124;DHT22;11731;48.592;8.858;2024-01-30T16:42:19;13.50;99.90
23124;DHT22;11731;48.592;8.858;2024-01-30T16:44:47;13.70;99.90
23124;DHT22;11731;48.592;8.858;2024-01-30T16:47:14;13.70;99.90
23124;DHT22;11731;48.592;8.858;2024-01-30T16:49:41;13.50;99.90
23124;DHT22;11731;48.592;8.858;2024-01-30T16:52:08;13.50;99.90
23124;DHT22;11731;48.592;8.858;2024-01-30T16:54:35;13.10;99.90
23124;DHT22;11731;48.592;8.858;2024-01-30T16:57:02;12.50;99.90
23124;DHT22;11731;48.592;8.858;2024-01-30T16:59:29;12.10;99.90
23124;DHT22;11731;48.592;8.858;2024-01-30T17:01:57;12.10;99.90
23124;DHT22;11731;48.592;8.858;2024-01-30T17:04:24;12.50;99.90
23124;DHT22;11731;48.592;8.858;2024-01-30T17:06:51;12.50;99.90
23124;DHT22;11731;48.592;8.858;2024-01-30T17:09:18;12.00;99.90
23124;DHT22;11731;48.592;8.858;2024-01-30T17:11:46;11.80;99.90
23124;DHT22;11731;48.592;8.858;2024-01-30T17:14:13;11.80;99.90
23124;DHT22;11731;48.592;8.858;2024-01-30T17:16:42;11.80;99.90
23124;DHT22;11731;48.592;8.858;2024-01-30T17:19:12;11.90;99.90
23124;DHT22;11731;48.592;8.858;2024-01-30T17:21:40;11.90;99.90
23124;DHT22;11731;48.592;8.858;2024-01-30T17:24:07;12.10;99.90
23124;DHT22;11731;48.592;8.858;2024-01-30T17:26:34;12.40;99.90
23124;DHT22;11731;48.592;8.858;2024-01-30T17:29:01;12.70;99.90
23124;DHT22;11731;48.592;8.858;2024-01-30T17:31:28;12.80;99.90
23124;DHT22;11731;48.592;8.858;2024-01-30T17:33:55;12.80;99.90
23124;DHT22;11731;48.592;8.858;2024-01-30T17:36:23;12.90;99.90
23124;DHT22;11731;48.592;8.858;2024-01-30T17:38:50;12.80;99.90
23124;DHT22;11731;48.592;8.858;2024-01-30T17:41:17;12.40;99.90
23124;DHT22;11731;48.592;8.858;2024-01-30T17:43:44;11.90;99.90
23124;DHT22;11731;48.592;8.858;2024-01-30T17:46:11;11.70;99.90
23124;DHT22;11731;48.592;8.858;2024-01-30T17:48:38;11.70;99.90
23124;DHT22;11731;48.592;8.858;2024-01-30T17:51:05;11.90;99.90
23124;DHT22;11731;48.592;8.858;2024-01-30T17:53:33;11.70;99.90
23124;DHT22;11731;48.592;8.858;2024-01-30T17:56:00;11.70;99.90
23124;DHT22;11731;48.592;8.858;2024-01-30T17:58:31;12.10;99.90
23124;DHT22;11731;48.592;8.858;2024-01-30T18:00:58;12.30;99.90
23124;DHT22;11731;48.592;8.858;2024-01-30T18:03:25;12.40;99.90
23124;DHT22;11731;48.592;8.858;2024-01-30T18:05:52;12.10;99.90
23124;DHT22;11731;48.592;8.858;2024-01-30T18:08:20;11.90;99.90
23124;DHT22;11731;48.592;8.858;2024-01-30T18:10:50;11.90;99.90
23124;DHT22;11731;48.592;8.858;2024-01-30T18:13:17;12.00;99.90
23124;DHT22;11731;48.592;8.858;2024-01-30T18:15:43;12.10;99.90
23124;DHT22;11731;48.592;8.858;2024-01-30T18:18:10;11.90;99.90
23124;DHT22;11731;48.592;8.858;2024-01-30T18:20:38;11.60;99.90
23124;DHT22;11731;48.592;8.858;2024-01-30T18:23:05;11.70;99.90
23124;DHT22;11731;48.592;8.858;2024-01-30T18:25:32;11.90;99.90
23124;DHT22;11731;48.592;8.858;2024-01-30T18:28:00;11.90;99.90
23124;DHT22;11731;48.592;8.858;2024-01-30T18:30:28;11.80;99.90
23124;DHT22;11731;48.592;8.858;2024-01-30T18:32:53;11.70;99.90
23124;DHT22;11731;48.592;8.858;2024-01-30T18:35:20;11.90;99.90
23124;DHT22;11731;48.592;8.858;2024-01-30T18:37:47;12.00;99.90
23124;DHT22;11731;48.592;8.858;2024-01-30T18:40:14;12.10;99.90
23124;DHT22;11731;48.592;8.858;2024-01-30T18:42:41;12.30;99.90
23124;DHT22;11731;48.592;8.858;2024-01-30T18:45:10;12.40;99.90
23124;DHT22;11731;48.592;8.858;2024-01-30T18:47:38;12.50;99.90
23124;DHT22;11731;48.592;8.858;2024-01-30T18:50:06;12.60;99.90
23124;DHT22;11731;48.592;8.858;2024-01-30T18:52:33;12.70;99.90
23124;DHT22;11731;48.592;8.858;2024-01-30T18:54:59;12.50;99.90
23124;DHT22;11731;48.592;8.858;2024-01-30T18:57:28;12.80;99.90
23124;DHT22;11731;48.592;8.858;2024-01-30T18:59:54;12.70;99.90
23124;DHT22;11731;48.592;8.858;2024-01-30T19:02:23;12.50;99.90
23124;DHT22;11731;48.592;8.858;2024-01-30T19:04:50;12.30;99.90
23124;DHT22;11731;48.592;8.858;2024-01-30T19:07:17;12.20;99.90
23124;DHT22;11731;48.592;8.858;2024-01-30T19:09:46;12.20;99.90
23124;DHT22;11731;48.592;8.858;2024-01-30T19:12:13;12.20;99.90
23124;DHT22;11731;48.592;8.858;2024-01-30T19:14:40;12.00;99.90
23124;DHT22;11731;48.592;8.858;2024-01-30T19:17:07;11.70;99.90
23124;DHT22;11731;48.592;8.858;2024-01-30T19:19:35;11.70;99.90
23124;DHT22;11731;48.592;8.858;2024-01-30T19:22:02;11.70;99.90
23124;DHT22;11731;48.592;8.858;2024-01-30T19:24:29;11.60;99.90
23124;DHT22;11731;48.592;8.858;2024-01-30T19:26:56;11.70;99.90
23124;DHT22;11731;48.592;8.858;2024-01-30T19:29:23;11.70;99.90
23124;DHT22;11731;48.592;8.858;2024-01-30T19:31:49;11.80;99.90
23124;DHT22;11731;48.592;8.858;2024-01-30T19:34:16;11.60;99.90
23124;DHT22;11731;48.592;8.858;2024-01-30T19:36:44;11.50;99.90
23124;DHT22;11731;48.592;8.858;2024-01-30T19:39:11;11.40;99.90
23124;DHT22;11731;48.592;8.858;2024-01-30T19:41:39;11.50;99.90
23124;DHT22;11731;48.592;8.858;2024-01-30T19:44:08;11.40;99.90
23124;DHT22;11731;48.592;8.858;2024-01-30T19:46:35;11.40;99.90
23124;DHT22;11731;48.592;8.858;2024-01-30T19:49:02;11.50;99.90
23124;DHT22;11731;48.592;8.858;2024-01-30T19:51:29;11.50;99.90
23124;DHT22;11731;48.592;8.858;2024-01-30T19:53:57;11.40;99.90